Аэропорт: Псков. Псков

ICAO: ULOO

METAR:
2021-01-20 04:00:00
ULOO 200400Z AUTO 15002MPS 130V190 9999 // M09/M11 Q1015 RMK QFE757
METAR:
2021-01-20 01:53:00
TAF ULOO 200153Z 2003/2012 18003MPS 6000 NSC TEMPO 2003/2012 -SN SCT016